Time;durP1;ratioP1;P1;durP2;ratioP2;P2;SDS_P1;SDS_P2;PMS_P1;PMS_P2;Temp;Humidity;BMP_temperature;BMP_pressure;BME280_temperature;BME280_humidity;BME280_pressure;Samples;Min_cycle;Max_cycle;Signal;HPM_P1;HPM_P2
2021/08/09 00:01:35;;;;;;;9.88;2.70;;;;;;;21.68;48.62;99846.91;4417407;32;20382;-69
2021/08/09 00:04:01;;;;;;;9.23;2.50;;;;;;;21.57;48.66;99841.31;4419082;32;20029;-69
2021/08/09 00:06:26;;;;;;;9.88;2.70;;;;;;;21.24;49.28;99848.13;4419173;32;20092;-69
2021/08/09 00:08:52;;;;;;;11.00;2.58;;;;;;;21.44;48.67;99852.59;4417333;32;20378;-69
2021/08/09 00:11:19;;;;;;;17.37;3.20;;;;;;;21.31;49.20;99838.16;4424212;32;20070;-69
2021/08/09 00:13:44;;;;;;;10.38;2.30;;;;;;;21.35;49.05;99844.34;4417865;32;20080;-69
2021/08/09 00:16:10;;;;;;;11.07;2.47;;;;;;;21.15;49.41;99845.59;4424281;32;20529;-69
2021/08/09 00:18:36;;;;;;;7.97;2.62;;;;;;;21.50;48.67;99848.37;4420242;32;20117;-69
2021/08/09 00:21:02;;;;;;;7.50;2.47;;;;;;;21.65;48.29;99850.84;4421991;32;20022;-69
2021/08/09 00:23:27;;;;;;;11.23;3.20;;;;;;;21.32;49.02;99866.25;4422261;32;20081;-69
2021/08/09 00:25:53;;;;;;;12.70;2.80;;;;;;;21.15;49.30;99856.25;4418799;32;20536;-69
2021/08/09 00:28:18;;;;;;;7.15;2.37;;;;;;;21.16;49.40;99857.81;4415041;32;20085;-69
2021/08/09 00:30:44;;;;;;;11.50;2.97;;;;;;;20.96;49.93;99856.13;4417311;32;20076;-69
2021/08/09 00:33:10;;;;;;;11.20;2.70;;;;;;;21.26;48.93;99848.34;4420469;32;20459;-69
2021/08/09 00:35:36;;;;;;;14.10;2.25;;;;;;;21.16;49.24;99855.72;4420519;32;20108;-69
2021/08/09 00:38:02;;;;;;;14.00;2.65;;;;;;;21.45;48.57;99849.22;4418371;32;20169;-69
2021/08/09 00:40:27;;;;;;;13.38;2.40;;;;;;;21.66;47.99;99850.31;4423347;32;20404;-69
2021/08/09 00:42:53;;;;;;;6.50;2.80;;;;;;;21.63;48.02;99850.63;4422152;32;20038;-69
2021/08/09 00:45:19;;;;;;;14.98;2.53;;;;;;;21.62;47.91;99849.81;4417423;32;20372;-69
2021/08/09 00:47:44;;;;;;;10.60;2.42;;;;;;;21.78;47.57;99845.25;4413304;32;20091;-69
2021/08/09 00:50:10;;;;;;;12.88;2.60;;;;;;;21.83;47.34;99843.63;4425183;32;20069;-69
2021/08/09 00:52:36;;;;;;;17.60;3.10;;;;;;;21.78;47.62;99842.38;4420038;32;20034;-69
2021/08/09 00:55:03;;;;;;;14.80;3.10;;;;;;;21.68;47.84;99844.03;4420714;32;20059;-69
2021/08/09 00:57:29;;;;;;;18.48;3.40;;;;;;;21.84;47.64;99836.62;4417274;32;20074;-69
2021/08/09 00:59:56;;;;;;;14.57;2.87;;;;;;;21.68;47.88;99841.19;4417212;32;20073;-69
2021/08/09 01:02:22;;;;;;;13.15;2.70;;;;;;;21.61;48.22;99844.62;4420067;32;20021;-69
2021/08/09 01:04:48;;;;;;;11.90;2.67;;;;;;;21.79;47.88;99837.44;4419500;32;20507;-69
2021/08/09 01:07:14;;;;;;;16.70;3.20;;;;;;;21.45;48.63;99832.03;4414960;32;20392;-69
2021/08/09 01:10:03;;;;;;;10.98;2.50;;;;;;;21.61;48.15;99836.06;4419803;32;20098;-69
2021/08/09 01:17:43;;;;;;;13.05;2.92;;;;;;;21.95;48.06;99840.13;3983511;32;15023754;-67
2021/08/09 01:27:58;;;;;;;9.93;2.80;;;;;;;22.08;47.77;99848.03;3983554;32;15023597;-69
2021/08/09 01:30:25;;;;;;;13.95;2.78;;;;;;;22.08;47.77;99848.03;4432476;32;20491;-69
2021/08/09 01:32:51;;;;;;;8.68;2.40;;;;;;;21.64;48.29;99847.19;4430614;32;20362;-69
2021/08/09 01:35:19;;;;;;;11.45;2.50;;;;;;;21.68;47.94;99852.62;4432435;32;20064;-70
2021/08/09 01:37:48;;;;;;;15.77;3.03;;;;;;;21.77;47.80;99855.16;4431300;32;20045;-69
2021/08/09 01:40:14;;;;;;;12.65;2.72;;;;;;;21.84;47.74;99848.84;4434203;32;20081;-69
2021/08/09 01:42:43;;;;;;;6.68;2.45;;;;;;;21.67;47.98;99854.72;4435271;32;20088;-69
2021/08/09 01:45:09;;;;;;;12.95;2.85;;;;;;;21.98;47.20;99849.72;4433610;32;20087;-69
2021/08/09 01:47:36;;;;;;;9.50;2.37;;;;;;;22.04;47.04;99847.56;4433476;32;20079;-69
2021/08/09 01:50:04;;;;;;;11.93;2.60;;;;;;;22.15;46.76;99850.31;4435138;32;20037;-69
2021/08/09 01:52:30;;;;;;;10.95;2.28;;;;;;;22.45;46.26;99857.47;4428043;32;20094;-69
2021/08/09 01:54:57;;;;;;;9.13;2.37;;;;;;;22.18;46.59;99861.44;4436199;32;20030;-69
2021/08/09 01:57:27;;;;;;;7.82;1.95;;;;;;;22.37;46.25;99861.50;4431631;32;20060;-69
2021/08/09 01:59:53;;;;;;;12.95;2.55;;;;;;;22.52;45.93;99856.87;4434915;32;20037;-69
2021/08/09 02:02:28;;;;;;;9.77;2.85;;;;;;;22.09;46.57;99870.41;4434582;32;20034;-68
2021/08/09 02:04:53;;;;;;;6.93;2.00;;;;;;;22.02;46.81;99870.25;4434577;32;20099;-68
2021/08/09 02:07:19;;;;;;;9.60;3.03;;;;;;;22.02;46.94;99870.25;4432511;32;20029;-68
2021/08/09 02:09:46;;;;;;;10.38;2.75;;;;;;;21.99;46.93;99862.75;4432010;32;20132;-68
2021/08/09 02:12:13;;;;;;;11.30;2.58;;;;;;;22.07;46.55;99863.69;4428685;32;20063;-68
2021/08/09 02:14:53;;;;;;;10.30;2.60;;;;;;;22.19;46.71;99870.84;4431748;32;20029;-68
2021/08/09 02:17:28;;;;;;;8.15;2.53;;;;;;;22.34;46.31;99868.31;4433816;32;20508;-68
2021/08/09 02:20:08;;;;;;;9.98;2.55;;;;;;;22.41;46.25;99859.88;4431891;32;20440;-69
2021/08/09 02:22:41;;;;;;;7.07;2.15;;;;;;;22.34;46.29;99869.09;4431186;32;20056;-68
2021/08/09 02:25:12;;;;;;;10.95;2.67;;;;;;;22.37;46.30;99859.38;4429304;32;20100;-68
2021/08/09 02:27:49;;;;;;;12.75;2.60;;;;;;;22.34;46.44;99866.22;4429027;32;20077;-68
2021/08/09 02:30:18;;;;;;;15.95;3.17;;;;;;;22.43;46.07;99860.09;4430504;32;20061;-68
2021/08/09 02:32:45;;;;;;;14.55;2.70;;;;;;;22.08;46.95;99863.16;4435099;32;20049;-68
2021/08/09 02:35:15;;;;;;;14.15;3.03;;;;;;;22.06;46.90;99859.28;4429589;32;20193;-69
2021/08/09 02:37:43;;;;;;;13.73;3.03;;;;;;;22.17;46.77;99857.03;4428915;32;20053;-68
2021/08/09 02:40:10;;;;;;;8.77;2.30;;;;;;;22.14;46.84;99863.06;4420359;32;20055;-68
2021/08/09 02:42:37;;;;;;;10.18;2.62;;;;;;;22.10;46.85;99862.59;4423540;32;20498;-68
2021/08/09 02:45:04;;;;;;;12.77;2.65;;;;;;;22.14;46.66;99858.13;4420757;32;20096;-68
2021/08/09 02:47:34;;;;;;;8.82;2.87;;;;;;;22.20;46.59;99858.84;4422661;32;20100;-68
2021/08/09 02:50:01;;;;;;;7.57;2.28;;;;;;;22.31;46.51;99857.91;4423855;32;20089;-68
2021/08/09 02:52:27;;;;;;;9.27;2.70;;;;;;;22.20;46.70;99861.69;4422593;32;20038;-68
2021/08/09 02:54:54;;;;;;;12.77;3.10;;;;;;;22.16;46.79;99863.31;4424587;32;20064;-68
2021/08/09 02:57:23;;;;;;;12.00;2.60;;;;;;;22.22;46.62;99859.06;4416843;32;20364;-68
2021/08/09 02:59:49;;;;;;;11.20;2.20;;;;;;;22.31;46.51;99857.91;4419470;32;20050;-68
2021/08/09 03:02:17;;;;;;;14.25;2.67;;;;;;;22.00;46.93;99856.47;4420009;32;20073;-68
2021/08/09 03:04:43;;;;;;;12.23;2.78;;;;;;;22.03;46.89;99863.22;4419909;32;20386;-68
2021/08/09 03:07:10;;;;;;;14.43;2.47;;;;;;;21.92;47.15;99860.47;4421784;32;20123;-68
2021/08/09 03:09:37;;;;;;;9.00;2.40;;;;;;;21.99;47.07;99866.38;4416335;32;20057;-68
2021/08/09 03:12:05;;;;;;;8.40;2.15;;;;;;;21.92;47.01;99860.47;4419771;32;20099;-68
2021/08/09 03:14:33;;;;;;;11.02;2.40;;;;;;;21.93;47.23;99859.19;4419241;32;20076;-68
2021/08/09 03:17:02;;;;;;;11.50;2.87;;;;;;;21.88;47.01;99857.13;4420876;32;20471;-68
2021/08/09 03:19:29;;;;;;;12.50;2.92;;;;;;;22.05;47.02;99861.34;4420208;32;20038;-68
2021/08/09 03:21:57;;;;;;;10.20;2.95;;;;;;;21.97;47.11;99859.62;4421244;32;20082;-68
2021/08/09 03:24:24;;;;;;;11.00;2.50;;;;;;;22.26;46.54;99850.94;4416832;32;20487;-68
2021/08/09 03:26:51;;;;;;;9.20;2.55;;;;;;;22.18;46.72;99858.59;4420841;32;20109;-68
2021/08/09 03:29:17;;;;;;;11.00;2.67;;;;;;;22.21;46.59;99856.75;4419661;32;20053;-68
2021/08/09 03:31:43;;;;;;;10.70;3.00;;;;;;;22.10;46.76;99860.53;4425046;32;20075;-68
2021/08/09 03:34:09;;;;;;;11.00;2.53;;;;;;;22.27;46.55;99869.69;4419518;32;20094;-68
2021/08/09 03:36:35;;;;;;;5.70;2.45;;;;;;;22.23;46.61;99859.84;4419241;32;20445;-68
2021/08/09 03:39:01;;;;;;;12.40;3.12;;;;;;;22.24;46.55;99861.41;4421791;32;20077;-68
2021/08/09 03:41:26;;;;;;;10.75;3.03;;;;;;;22.35;46.43;99862.03;4420277;32;20086;-68
2021/08/09 03:43:52;;;;;;;9.77;2.50;;;;;;;22.31;46.40;99860.78;4420566;32;20041;-68
2021/08/09 03:46:18;;;;;;;9.25;2.83;;;;;;;22.33;46.34;99861.03;4420140;32;20056;-68
2021/08/09 03:48:44;;;;;;;15.05;2.72;;;;;;;22.23;46.50;99862.69;4418603;32;20088;-68
2021/08/09 03:51:09;;;;;;;10.50;2.97;;;;;;;22.23;46.56;99860.62;4419574;32;20077;-68
2021/08/09 03:53:35;;;;;;;17.73;2.90;;;;;;;22.18;46.42;99869.28;4421679;32;20492;-68
2021/08/09 03:56:02;;;;;;;10.00;2.95;;;;;;;22.12;46.70;99862.84;4417842;32;20142;-68
2021/08/09 03:58:28;;;;;;;10.10;3.08;;;;;;;22.01;46.88;99860.88;4420118;32;20432;-68
2021/08/09 04:00:53;;;;;;;10.68;3.42;;;;;;;21.99;47.21;99862.75;4423046;32;20075;-68
2021/08/09 04:03:19;;;;;;;10.75;3.50;;;;;;;22.01;47.11;99865.84;4419006;32;20136;-69
2021/08/09 04:05:44;;;;;;;7.93;2.60;;;;;;;21.92;47.24;99871.94;4417878;32;20109;-69
2021/08/09 04:08:11;;;;;;;10.35;3.85;;;;;;;21.87;47.44;99875.66;4417876;32;20069;-68
2021/08/09 04:10:37;;;;;;;7.95;2.80;;;;;;;21.76;47.79;99875.75;4419079;32;20113;-68
2021/08/09 04:13:04;;;;;;;12.98;3.08;;;;;;;21.93;47.50;99877.13;4421840;32;20457;-68
2021/08/09 04:15:29;;;;;;;7.57;2.95;;;;;;;21.64;47.98;99866.47;4420004;32;20065;-69
2021/08/09 04:17:56;;;;;;;8.57;3.00;;;;;;;21.55;48.18;99867.59;4417536;32;20042;-68
2021/08/09 04:20:23;;;;;;;14.13;4.12;;;;;;;21.58;48.00;99862.88;4421088;32;20579;-68
2021/08/09 04:22:49;;;;;;;8.80;3.33;;;;;;;21.72;47.73;99872.37;4416770;32;20046;-68
2021/08/09 04:25:15;;;;;;;6.60;3.37;;;;;;;21.58;47.81;99869.41;4419758;32;20450;-68
2021/08/09 04:27:41;;;;;;;11.20;3.87;;;;;;;21.72;47.61;99880.97;4417831;32;20069;-68
2021/08/09 04:30:07;;;;;;;12.35;3.62;;;;;;;21.72;47.65;99866.66;4416260;32;20492;-68
2021/08/09 04:32:41;;;;;;;9.50;3.53;;;;;;;21.80;47.61;99870.50;4419940;32;20073;-68
2021/08/09 04:35:09;;;;;;;16.87;3.40;;;;;;;21.93;47.38;99870.63;4419432;32;20034;-68
2021/08/09 04:37:35;;;;;;;9.90;3.37;;;;;;;21.89;47.52;99875.88;4418126;32;20096;-68
2021/08/09 04:40:01;;;;;;;14.77;4.00;;;;;;;21.77;47.75;99872.34;4418797;32;20451;-68
2021/08/09 04:42:27;;;;;;;14.27;4.37;;;;;;;21.81;47.69;99872.81;4418995;32;20064;-69
2021/08/09 04:44:52;;;;;;;11.90;3.12;;;;;;;21.81;47.71;99872.06;4417753;32;20443;-68
2021/08/09 04:47:18;;;;;;;8.55;3.22;;;;;;;21.72;47.97;99870.28;4418220;32;20120;-68
2021/08/09 04:49:44;;;;;;;11.60;3.62;;;;;;;21.79;47.93;99874.69;4418368;32;20059;-69
2021/08/09 04:52:10;;;;;;;11.45;3.95;;;;;;;21.78;47.84;99871.03;4419856;32;20029;-69
2021/08/09 04:54:36;;;;;;;13.98;3.92;;;;;;;21.89;47.66;99875.88;4416196;32;20038;-68
2021/08/09 04:57:02;;;;;;;15.23;3.90;;;;;;;21.98;47.60;99872.66;4419002;32;20030;-69
2021/08/09 04:59:28;;;;;;;9.40;3.87;;;;;;;21.97;47.58;99869.03;4417281;32;20708;-68
2021/08/09 05:01:54;;;;;;;17.00;4.03;;;;;;;22.01;47.41;99871.56;4416935;32;20085;-68
2021/08/09 05:04:19;;;;;;;10.48;3.80;;;;;;;21.94;47.66;99869.31;4416227;32;20456;-68
2021/08/09 05:06:47;;;;;;;14.30;4.93;;;;;;;21.93;47.72;99879.22;4420704;32;20507;-69
2021/08/09 05:09:13;;;;;;;12.48;4.55;;;;;;;21.77;48.01;99874.44;4416514;32;20515;-68
2021/08/09 05:11:38;;;;;;;14.93;4.10;;;;;;;21.74;48.05;99870.56;4419063;32;20057;-68
2021/08/09 05:14:04;;;;;;;9.88;4.00;;;;;;;21.90;47.87;99874.56;4415015;32;20042;-68
2021/08/09 05:16:33;;;;;;;15.07;4.32;;;;;;;21.74;48.14;99869.78;4418916;32;20059;-69
2021/08/09 05:19:02;;;;;;;15.70;4.80;;;;;;;21.83;47.88;99873.06;4417743;32;20038;-69
2021/08/09 05:21:30;;;;;;;10.45;4.30;;;;;;;22.01;47.42;99874.44;4420711;32;20124;-68
2021/08/09 05:23:58;;;;;;;13.62;4.25;;;;;;;22.15;47.60;99882.59;4420754;32;20064;-68
2021/08/09 05:26:24;;;;;;;10.63;4.20;;;;;;;22.18;47.19;99881.50;4421368;32;21192;-69
2021/08/09 05:28:50;;;;;;;14.40;4.30;;;;;;;22.19;47.38;99879.44;4418326;32;20485;-69
2021/08/09 05:31:16;;;;;;;13.50;4.45;;;;;;;22.29;47.09;99889.22;4416115;32;20064;-68
2021/08/09 05:33:42;;;;;;;13.60;3.70;;;;;;;22.49;46.50;99885.84;4418310;32;20101;-69
2021/08/09 05:36:08;;;;;;;11.02;4.28;;;;;;;22.65;46.33;99887.72;4418137;32;20146;-68
2021/08/09 05:38:34;;;;;;;9.20;4.47;;;;;;;22.57;46.48;99881.84;4419123;32;20057;-68
2021/08/09 05:41:02;;;;;;;12.65;4.37;;;;;;;22.73;46.07;99886.56;4417104;32;20034;-68
2021/08/09 05:43:28;;;;;;;10.75;4.28;;;;;;;23.14;45.39;99889.09;4416389;32;20038;-69
2021/08/09 05:45:54;;;;;;;9.73;3.65;;;;;;;23.15;45.12;99890.62;4415564;32;20074;-69
2021/08/09 05:48:19;;;;;;;8.50;3.75;;;;;;;23.13;45.20;99896.13;4420797;32;20060;-69
2021/08/09 05:50:45;;;;;;;11.90;4.40;;;;;;;23.25;44.72;99897.53;4420905;32;20616;-69
2021/08/09 05:53:10;;;;;;;11.27;4.35;;;;;;;23.19;44.98;99894.72;4420044;32;20624;-69
2021/08/09 05:55:36;;;;;;;12.25;4.07;;;;;;;23.57;44.24;99894.66;4418890;32;20144;-68
2021/08/09 05:58:02;;;;;;;14.13;4.75;;;;;;;23.65;44.24;99902.06;4419664;32;20033;-69
2021/08/09 06:00:28;;;;;;;14.70;4.07;;;;;;;23.86;43.57;99897.25;4421806;32;20489;-69
2021/08/09 06:02:53;;;;;;;15.68;4.05;;;;;;;23.72;43.71;99898.56;4419369;32;20072;-69
2021/08/09 06:05:19;;;;;;;9.50;4.05;;;;;;;23.97;43.45;99899.94;4416206;32;20026;-69
2021/08/09 06:07:45;;;;;;;10.93;4.47;;;;;;;24.01;43.37;99897.50;4419074;32;20481;-69
2021/08/09 06:10:11;;;;;;;16.83;4.10;;;;;;;24.15;43.02;99895.41;4419241;32;20093;-69
2021/08/09 06:12:37;;;;;;;16.33;3.97;;;;;;;24.45;42.42;99898.72;4414389;32;20030;-69
2021/08/09 06:15:05;;;;;;;10.77;3.72;;;;;;;24.57;42.30;99892.16;4419377;32;21480;-69
2021/08/09 06:17:34;;;;;;;9.68;3.60;;;;;;;24.76;41.94;99892.81;4421692;32;20064;-69
2021/08/09 06:19:59;;;;;;;10.23;3.15;;;;;;;24.72;42.13;99903.91;4417205;32;20469;-69
2021/08/09 06:22:27;;;;;;;8.20;3.47;;;;;;;24.85;41.71;99894.47;4421087;32;20042;-70
2021/08/09 06:24:53;;;;;;;7.30;3.17;;;;;;;24.98;41.43;99900.94;4422789;32;20029;-69
2021/08/09 06:27:18;;;;;;;8.50;3.30;;;;;;;25.02;41.72;99897.72;4418496;32;20037;-69
2021/08/09 06:29:44;;;;;;;10.27;3.08;;;;;;;25.52;40.78;99903.06;4416675;32;20076;-69
2021/08/09 06:32:09;;;;;;;10.20;3.37;;;;;;;25.66;40.57;99904.56;4420862;32;20034;-69
2021/08/09 06:34:36;;;;;;;11.70;2.65;;;;;;;25.61;40.95;99907.59;4420049;32;20033;-69
2021/08/09 06:37:02;;;;;;;11.07;2.33;;;;;;;25.68;40.41;99896.09;4420947;32;20542;-69
2021/08/09 06:39:27;;;;;;;13.95;2.72;;;;;;;25.43;40.60;99903.56;4419208;32;20473;-69
2021/08/09 06:41:54;;;;;;;8.95;2.95;;;;;;;25.47;40.74;99906.09;4422136;32;20175;-69
2021/08/09 06:44:20;;;;;;;7.93;2.83;;;;;;;25.19;41.05;99896.00;4421754;32;20038;-69
2021/08/09 06:46:46;;;;;;;11.73;2.60;;;;;;;25.22;41.21;99899.88;4420108;32;20486;-69
2021/08/09 06:49:11;;;;;;;9.25;2.60;;;;;;;25.48;41.10;99902.66;4423617;32;20127;-69
2021/08/09 06:51:37;;;;;;;11.15;3.78;;;;;;;25.52;40.72;99900.19;4421813;32;20090;-69
2021/08/09 06:54:03;;;;;;;11.75;3.10;;;;;;;25.69;40.57;99902.63;4422192;32;20041;-69
2021/08/09 06:56:29;;;;;;;11.68;3.20;;;;;;;25.98;40.04;99910.78;4421109;32;20037;-69
2021/08/09 06:58:55;;;;;;;11.23;2.75;;;;;;;26.02;40.02;99914.09;4420610;32;20423;-69
2021/08/09 07:01:22;;;;;;;10.25;2.62;;;;;;;25.74;40.42;99902.47;4419970;32;20100;-68
2021/08/09 07:03:48;;;;;;;10.23;2.40;;;;;;;25.77;40.33;99910.00;4422969;32;20379;-68
2021/08/09 07:06:18;;;;;;;10.50;3.47;;;;;;;25.96;39.84;99904.00;4420248;32;20564;-70
2021/08/09 07:08:44;;;;;;;8.65;2.62;;;;;;;26.47;39.28;99902.06;4419735;32;20448;-68
2021/08/09 07:11:09;;;;;;;8.50;3.42;;;;;;;26.33;39.40;99915.06;4419023;32;20042;-68
2021/08/09 07:13:35;;;;;;;5.00;1.87;;;;;;;25.90;40.07;99915.72;4422191;32;20107;-68
2021/08/09 07:16:01;;;;;;;9.23;2.33;;;;;;;26.06;39.81;99917.37;4420329;32;20794;-70
2021/08/09 07:18:27;;;;;;;4.20;1.70;;;;;;;26.32;39.64;99919.31;4418984;32;20077;-69
2021/08/09 07:20:52;;;;;;;9.68;2.30;;;;;;;26.38;39.28;99919.91;4419315;32;20068;-69
2021/08/09 07:23:18;;;;;;;7.93;2.20;;;;;;;26.16;39.61;99914.75;4419108;32;20074;-68
2021/08/09 07:25:43;;;;;;;7.40;2.20;;;;;;;26.48;39.13;99927.44;4418074;32;20072;-69
2021/08/09 07:28:09;;;;;;;7.37;2.10;;;;;;;26.52;38.95;99932.87;4418525;32;20068;-69
2021/08/09 07:30:35;;;;;;;13.25;2.17;;;;;;;26.70;38.74;99926.06;4418679;32;20496;-68
2021/08/09 07:33:00;;;;;;;6.80;2.53;;;;;;;26.38;39.00;99929.31;4416977;32;20069;-69
2021/08/09 07:35:27;;;;;;;9.23;2.42;;;;;;;26.70;38.98;99915.31;4418089;32;20068;-69
2021/08/09 07:37:53;;;;;;;8.20;2.03;;;;;;;26.86;38.77;99916.13;4416367;32;20110;-69
2021/08/09 07:40:19;;;;;;;6.37;2.12;;;;;;;26.54;39.19;99918.66;4420115;32;20425;-69
2021/08/09 07:42:45;;;;;;;9.35;2.05;;;;;;;26.57;39.30;99929.06;4418172;32;20093;-69
2021/08/09 07:45:11;;;;;;;4.43;1.65;;;;;;;26.40;39.58;99931.63;4418051;32;20084;-68
2021/08/09 07:47:37;;;;;;;14.77;4.45;;;;;;;26.19;39.69;99923.06;4419637;32;20086;-69
2021/08/09 07:50:03;;;;;;;7.25;2.83;;;;;;;26.69;39.19;99927.41;4416596;32;20486;-68
2021/08/09 07:52:29;;;;;;;5.47;2.22;;;;;;;26.87;38.69;99930.00;4415266;32;20351;-68
2021/08/09 07:54:55;;;;;;;7.45;1.85;;;;;;;27.02;38.31;99932.16;4420741;32;20072;-68
2021/08/09 07:57:21;;;;;;;7.43;2.47;;;;;;;27.25;37.84;99935.16;4416589;32;20508;-69
2021/08/09 07:59:47;;;;;;;4.28;2.20;;;;;;;27.28;38.06;99934.78;4415675;32;20430;-68
2021/08/09 08:02:14;;;;;;;4.53;2.33;;;;;;;27.00;38.42;99935.62;4419651;32;20068;-68
2021/08/09 08:04:44;;;;;;;8.40;2.33;;;;;;;27.25;38.10;99926.47;4422094;32;20569;-69
2021/08/09 08:07:10;;;;;;;5.95;2.20;;;;;;;27.11;38.43;99938.16;4422779;32;20042;-68
2021/08/09 08:09:35;;;;;;;9.70;2.83;;;;;;;27.19;38.34;99938.94;4422706;32;20075;-68
2021/08/09 08:12:03;;;;;;;7.43;2.65;;;;;;;27.41;37.99;99936.72;4420049;32;20515;-68
2021/08/09 08:14:29;;;;;;;7.80;2.28;;;;;;;27.69;37.65;99933.69;4420328;32;20067;-68
2021/08/09 08:16:55;;;;;;;6.15;2.60;;;;;;;27.85;37.21;99935.25;4420158;32;20099;-68
2021/08/09 08:19:22;;;;;;;5.10;2.05;;;;;;;28.26;36.83;99935.59;4419156;32;20149;-68
2021/08/09 08:21:48;;;;;;;6.45;2.08;;;;;;;27.86;37.25;99943.38;4420651;32;20443;-68
2021/08/09 08:24:14;;;;;;;7.53;2.25;;;;;;;27.52;37.65;99956.59;4420784;32;20038;-69
2021/08/09 08:26:40;;;;;;;6.28;2.42;;;;;;;27.82;37.33;99950.88;4420066;32;20438;-68
2021/08/09 08:29:06;;;;;;;10.73;2.53;;;;;;;27.97;36.95;99948.75;4420044;32;20150;-69
2021/08/09 08:31:32;;;;;;;5.93;2.25;;;;;;;27.61;37.53;99948.13;4420105;32;20087;-68
2021/08/09 08:33:58;;;;;;;10.07;2.72;;;;;;;27.79;37.45;99943.34;4419590;32;20481;-68
2021/08/09 08:36:24;;;;;;;7.70;2.42;;;;;;;27.89;37.19;99953.00;4420868;32;20045;-69
2021/08/09 08:38:51;;;;;;;6.68;2.70;;;;;;;27.77;37.46;99951.81;4415264;32;20077;-69
2021/08/09 08:41:17;;;;;;;12.02;2.60;;;;;;;28.02;37.02;99958.59;4416677;32;20106;-69
2021/08/09 08:43:44;;;;;;;5.70;2.30;;;;;;;27.83;37.65;99955.28;4417217;32;20173;-69
2021/08/09 08:46:10;;;;;;;5.18;2.28;;;;;;;27.84;37.34;99956.81;4417396;32;20454;-69
2021/08/09 08:48:37;;;;;;;5.97;2.00;;;;;;;27.40;38.17;99958.31;4419388;32;20098;-68
2021/08/09 08:51:04;;;;;;;7.32;2.22;;;;;;;27.74;37.76;99952.97;4420382;32;20459;-69
2021/08/09 08:53:33;;;;;;;6.32;2.22;;;;;;;27.44;38.30;99958.69;4420693;32;20037;-69
2021/08/09 08:55:59;;;;;;;4.68;2.20;;;;;;;27.48;38.51;99964.88;4417915;32;20092;-69
2021/08/09 08:58:25;;;;;;;6.30;2.47;;;;;;;27.75;37.75;99966.06;4422330;32;20038;-69
2021/08/09 09:00:51;;;;;;;7.35;2.55;;;;;;;27.95;37.54;99968.06;4416667;32;20617;-69
2021/08/09 09:03:23;;;;;;;5.30;2.60;;;;;;;27.54;37.94;99974.91;4418504;32;20479;-69
2021/08/09 09:14:01;;;;;;;6.87;1.60;;;;;;;28.30;36.38;99973.62;3983676;32;15024933;-69
2021/08/09 09:16:42;;;;;;;6.15;2.05;;;;;;;28.30;36.38;99973.62;4432480;32;20078;-70
2021/08/09 09:19:08;;;;;;;4.43;2.00;;;;;;;28.29;36.08;99980.75;4432266;32;20410;-69
2021/08/09 09:21:37;;;;;;;3.28;1.60;;;;;;;28.03;36.40;99981.16;4432889;32;20029;-69
2021/08/09 09:24:20;;;;;;;3.90;1.77;;;;;;;28.54;35.66;99980.94;4432659;32;20021;-69
2021/08/09 09:26:52;;;;;;;2.78;1.45;;;;;;;28.71;35.42;99978.97;4429364;32;20036;-69
2021/08/09 09:29:19;;;;;;;5.70;1.42;;;;;;;28.52;35.92;99980.75;4431616;32;20061;-68
2021/08/09 09:31:47;;;;;;;2.97;1.42;;;;;;;27.85;36.72;99979.38;4432323;32;20045;-68
2021/08/09 09:34:15;;;;;;;3.87;1.60;;;;;;;27.93;36.96;99980.19;4433082;32;20395;-68
2021/08/09 09:39:40;;;;;;;8.82;1.98;;;;;;;29.32;35.02;99981.69;3969642;32;15024519;-69
2021/08/09 09:42:08;;;;;;;6.40;1.83;;;;;;;29.32;35.02;99981.69;4424740;32;20072;-68
2021/08/09 09:44:36;;;;;;;8.43;1.65;;;;;;;29.33;34.78;99977.41;4424535;32;20232;-69
2021/08/09 09:47:24;;;;;;;3.35;1.70;;;;;;;28.89;34.61;99977.75;4425643;32;20378;-69
2021/08/09 09:49:53;;;;;;;7.93;1.80;;;;;;;29.49;33.79;99975.97;4422891;32;20467;-69
2021/08/09 09:55:11;;;;;;;3.97;1.80;;;;;;;29.24;34.38;99978.03;3980190;32;15025053;-69
2021/08/09 09:57:37;;;;;;;3.90;1.87;;;;;;;29.24;34.38;99978.03;4436833;32;20059;-69
2021/08/09 10:00:07;;;;;;;4.93;1.73;;;;;;;28.71;35.06;99981.88;4433984;32;20174;-69
2021/08/09 10:02:35;;;;;;;4.12;1.83;;;;;;;28.69;35.00;99993.25;4432452;32;20125;-69
2021/08/09 10:05:01;;;;;;;3.10;1.40;;;;;;;28.85;34.27;99979.50;4431605;32;20081;-69
2021/08/09 10:07:28;;;;;;;4.97;1.73;;;;;;;29.02;34.22;99997.00;4436651;32;20096;-69
2021/08/09 10:09:55;;;;;;;2.80;1.23;;;;;;;29.51;33.28;99979.81;4435590;32;20029;-69
2021/08/09 10:12:25;;;;;;;2.30;1.30;;;;;;;29.88;32.07;99993.31;4438886;32;20540;-68
2021/08/09 10:14:54;;;;;;;4.20;1.65;;;;;;;29.73;31.91;99990.50;4434719;32;20534;-70
2021/08/09 10:17:22;;;;;;;7.60;2.67;;;;;;;29.47;32.51;99991.03;4435710;32;20096;-69
2021/08/09 10:19:51;;;;;;;4.45;2.17;;;;;;;29.89;31.86;99988.28;4436653;32;20044;-69
2021/08/09 10:22:18;;;;;;;8.55;4.07;;;;;;;30.59;30.91;99985.75;4437441;32;20033;-69
2021/08/09 10:24:45;;;;;;;8.07;5.80;;;;;;;30.81;30.34;99987.69;4433054;32;20051;-70
2021/08/09 10:27:11;;;;;;;7.85;5.25;;;;;;;30.79;30.36;99982.47;4435969;32;20060;-69
2021/08/09 10:32:53;;;;;;;9.10;5.75;;;;;;;31.39;29.18;100000.56;4000247;31;15021118;-69
2021/08/09 10:38:33;;;;;;;5.43;4.30;;;;;;;31.24;29.53;99994.91;4005539;31;15018055;-70
2021/08/09 10:46:45;;;;;;;5.60;3.00;;;;;;;31.29;28.63;99993.91;3984112;32;15029789;-70
2021/08/09 10:52:20;;;;;;;5.78;3.90;;;;;;;31.63;27.59;99990.91;3984846;32;15023963;-70
2021/08/09 10:54:46;;;;;;;5.93;3.55;;;;;;;31.63;27.59;99990.91;4435597;32;20153;-69
2021/08/09 10:57:47;;;;;;;7.82;3.08;;;;;;;30.90;28.55;100004.44;4438553;32;20370;-69
2021/08/09 11:03:18;;;;;;;5.05;2.78;;;;;;;30.06;27.80;99997.81;3981754;32;15028706;-70
2021/08/09 11:05:43;;;;;;;7.37;3.10;;;;;;;30.08;28.39;100000.13;4437152;32;20067;-68
2021/08/09 11:13:29;;;;;;;8.20;3.28;;;;;;;31.85;27.33;100013.87;3979877;32;15023100;-69
2021/08/09 11:15:57;;;;;;;6.55;2.90;;;;;;;31.85;27.33;100013.87;4430079;32;20029;-68
2021/08/09 11:18:24;;;;;;;5.57;2.20;;;;;;;31.42;27.69;100008.84;4435241;32;20064;-69
2021/08/09 11:21:07;;;;;;;4.87;2.10;;;;;;;31.46;27.01;100009.16;4434296;32;20797;-70
2021/08/09 11:23:46;;;;;;;7.70;2.10;;;;;;;31.59;27.10;100014.59;4435835;32;20183;-68
2021/08/09 11:26:22;;;;;;;3.00;1.60;;;;;;;32.27;26.20;100014.34;4434452;32;20107;-69
2021/08/09 11:29:05;;;;;;;8.27;2.17;;;;;;;32.69;25.85;100016.94;4427624;32;20129;-69
2021/08/09 11:31:49;;;;;;;8.00;1.75;;;;;;;32.96;25.35;100013.91;4430275;32;21175;-69
2021/08/09 11:34:18;;;;;;;4.15;2.20;;;;;;;32.78;25.07;100022.00;4434754;32;20053;-69
2021/08/09 11:36:44;;;;;;;3.20;1.80;;;;;;;32.41;25.65;100024.25;4434824;32;20159;-69
2021/08/09 11:39:10;;;;;;;2.87;1.58;;;;;;;32.15;25.94;100019.19;4435027;32;20136;-69
2021/08/09 11:41:36;;;;;;;5.78;1.60;;;;;;;32.21;26.09;100019.69;4436027;32;20082;-69
2021/08/09 11:44:07;;;;;;;6.55;1.73;;;;;;;31.94;26.40;100030.59;4436525;32;20171;-69
2021/08/09 11:46:50;;;;;;;5.07;1.90;;;;;;;32.45;26.02;100021.62;4433573;32;20030;-69
2021/08/09 11:49:16;;;;;;;3.05;1.67;;;;;;;33.42;25.12;100027.00;4434312;32;20037;-69
2021/08/09 11:51:43;;;;;;;7.32;1.95;;;;;;;32.71;24.24;100034.59;4435596;32;20438;-68
2021/08/09 11:54:08;;;;;;;4.65;2.10;;;;;;;32.93;24.01;100024.66;4433901;32;20076;-70
2021/08/09 11:56:35;;;;;;;4.32;1.90;;;;;;;32.59;24.62;100019.06;4435030;32;20069;-69
2021/08/09 11:59:18;;;;;;;5.85;1.80;;;;;;;32.65;24.73;100031.94;4436237;32;20064;-69
2021/08/09 12:01:46;;;;;;;3.55;1.95;;;;;;;32.87;24.64;100040.91;4430837;32;20088;-70
2021/08/09 12:09:41;;;;;;;3.95;2.12;;;;;;;33.30;23.76;100037.72;3982602;32;15023012;-70
2021/08/09 12:12:10;;;;;;;4.62;1.77;;;;;;;33.30;23.76;100037.72;4433225;32;20467;-69
2021/08/09 12:14:36;;;;;;;3.58;2.05;;;;;;;33.00;23.99;100034.66;4437016;32;20161;-68
2021/08/09 12:17:22;;;;;;;2.72;1.77;;;;;;;33.44;23.30;100040.97;4436774;32;20052;-69
2021/08/09 12:22:34;;;;;;;3.00;1.58;;;;;;;34.28;22.87;100045.06;3953993;32;15728587;-69
2021/08/09 12:27:36;;;;;;;3.28;1.70;;;;;;;32.91;24.62;100039.06;3953722;32;15727632;-68
2021/08/09 12:35:17;;;;;;;2.30;1.70;;;;;;;32.91;23.20;100030.34;3981044;32;15023533;-68